Wilson Algeciras — 9HA2471 — position and weather

sailwx.info

Track history (hours):
 
Tides and Currents Weather Stations Pressure Air Temp Water Temp Dewpoint Dewpoint Depression Visibility Wind Speed Wind Dir Waves Ship Positions

Wilson Algeciras

Last reported at 2014-Aug-26 20:14 UTC. Time now 2014-Aug-27 15:15 UTC.
Position N 31°20' E 030°05'.

Length 88 m; draft 5.5 m.

Type: Cargo ship. MMSI: 248689000.

Date/timePositionNaut miles runAvg speedWind from/ knotsBaromVisibWave heightAir tempDewpointWater temp
2014-Aug-26 20:14N 31°20' E 030°05'0 0.0
2014-Aug-26 01:26N 31°20' E 030°05'0 0.0
2014-Aug-26 00:32N 31°20' E 030°05'8 0.2
2014-Aug-24 06:12N 31°25' E 029°57'34 9.3
2014-Aug-24 02:32N 31°37' E 029°20'9 9.3
2014-Aug-24 01:33N 31°41' E 029°10'13 9.5
2014-Aug-24 00:12N 31°45' E 028°56'6 9.5
2014-Aug-23 23:34N 31°47' E 028°49'  
2014-Aug-21 03:31N 35°37' E 016°50'9 9.0
2014-Aug-21 02:34N 35°40' E 016°40'9 9.1
2014-Aug-21 01:34N 35°43' E 016°30'9 9.2
2014-Aug-21 00:34N 35°47' E 016°19'9 9.0
2014-Aug-20 23:34N 35°50' E 016°09'9 9.0
2014-Aug-20 22:34N 35°53' E 015°58'10 8.9
2014-Aug-20 21:29N 35°57' E 015°47'8 9.0
2014-Aug-20 20:33N 35°59' E 015°38'9 9.3
2014-Aug-20 19:34N 36°03' E 015°27'9 9.4
2014-Aug-20 18:33N 36°06' E 015°16'9 9.5
2014-Aug-20 17:33N 36°10' E 015°05'9 9.3
2014-Aug-20 16:33N 36°13' E 014°54'9 9.2
2014-Aug-20 15:34N 36°16' E 014°44'9 9.1
2014-Aug-20 14:33N 36°19' E 014°33'9 9.3
2014-Aug-20 13:34N 36°23' E 014°22'9 9.2
2014-Aug-20 12:33N 36°26' E 014°12'9 9.2
2014-Aug-20 11:34N 36°29' E 014°01'9 9.2
2014-Aug-20 10:34N 36°33' E 013°50'9 9.0
2014-Aug-20 09:33N 36°36' E 013°40'9 8.9
2014-Aug-20 08:33N 36°39' E 013°30'9 8.9
2014-Aug-20 07:34N 36°42' E 013°19'9 8.8
2014-Aug-20 06:33N 36°45' E 013°09'9 8.9
2014-Aug-20 05:34N 36°48' E 012°59'9 9.1
2014-Aug-20 04:33N 36°52' E 012°48'9 9.1
2014-Aug-20 03:33N 36°55' E 012°37'10 9.0
2014-Aug-20 02:30N 36°58' E 012°26'8 9.0
2014-Aug-20 01:34N 37°01' E 012°16'38 9.0
2014-Aug-19 21:19N 37°15' E 011°31'7 9.1
2014-Aug-19 20:33N 37°17' E 011°23'9 9.1
2014-Aug-19 19:34N 37°21' E 011°13'9 9.1
2014-Aug-19 18:33N 37°24' E 011°02'9 9.2
2014-Aug-19 17:34N 37°26' E 010°51'9 9.5
2014-Aug-19 16:33N 37°28' E 010°39'10 9.6
2014-Aug-19 15:34N 37°30' E 010°27'10 9.7
2014-Aug-19 14:30N 37°33' E 010°15'114 9.6
2014-Aug-19 02:34N 37°19' E 007°52'10 8.7
2014-Aug-19 01:27N 37°19' E 007°40'9 9.4
2014-Aug-19 00:30N 37°19' E 007°28'9 9.1
2014-Aug-18 23:29N 37°19' E 007°17'10 9.0
2014-Aug-18 22:24N 37°19' E 007°04'8 8.9
2014-Aug-18 21:30N 37°19' E 006°54'18 8.9
2014-Aug-18 19:27N 37°18' E 006°31'17 8.5
2014-Aug-18 17:28N 37°17' E 006°10'16 8.2
2014-Aug-18 15:31N 37°16' E 005°50'113 8.4
2014-Aug-18 02:07N 37°06' E 003°29'5 8.0
2014-Aug-18 01:32N 37°06' E 003°23'  
Track history (hours):
 
Tides and Currents Weather Stations Pressure Air Temp Water Temp Dewpoint Dewpoint Depression Visibility Wind Speed Wind Dir Waves Ship Positions

Wilson Algeciras

Last reported at 2014-Aug-26 20:14 UTC. Time now 2014-Aug-27 15:15 UTC.
Position N 31°20' E 030°05'.

Length 88 m; draft 5.5 m.

Type: Cargo ship. MMSI: 248689000.

Date/timePositionNaut miles runAvg speedWind from/ knotsBaromVisibWave heightAir tempDewpointWater temp
2014-Aug-26 20:14N 31°20' E 030°05'0 0.0
2014-Aug-26 01:26N 31°20' E 030°05'0 0.0
2014-Aug-26 00:32N 31°20' E 030°05'8 0.2
2014-Aug-24 06:12N 31°25' E 029°57'34 9.3
2014-Aug-24 02:32N 31°37' E 029°20'9 9.3
2014-Aug-24 01:33N 31°41' E 029°10'13 9.5
2014-Aug-24 00:12N 31°45' E 028°56'6 9.5
2014-Aug-23 23:34N 31°47' E 028°49'  
2014-Aug-21 03:31N 35°37' E 016°50'9 9.0
2014-Aug-21 02:34N 35°40' E 016°40'9 9.1
2014-Aug-21 01:34N 35°43' E 016°30'9 9.2
2014-Aug-21 00:34N 35°47' E 016°19'9 9.0
2014-Aug-20 23:34N 35°50' E 016°09'9 9.0
2014-Aug-20 22:34N 35°53' E 015°58'10 8.9
2014-Aug-20 21:29N 35°57' E 015°47'8 9.0
2014-Aug-20 20:33N 35°59' E 015°38'9 9.3
2014-Aug-20 19:34N 36°03' E 015°27'9 9.4
2014-Aug-20 18:33N 36°06' E 015°16'9 9.5
2014-Aug-20 17:33N 36°10' E 015°05'9 9.3
2014-Aug-20 16:33N 36°13' E 014°54'9 9.2
2014-Aug-20 15:34N 36°16' E 014°44'9 9.1
2014-Aug-20 14:33N 36°19' E 014°33'9 9.3
2014-Aug-20 13:34N 36°23' E 014°22'9 9.2
2014-Aug-20 12:33N 36°26' E 014°12'9 9.2
2014-Aug-20 11:34N 36°29' E 014°01'9 9.2
2014-Aug-20 10:34N 36°33' E 013°50'9 9.0
2014-Aug-20 09:33N 36°36' E 013°40'9 8.9
2014-Aug-20 08:33N 36°39' E 013°30'9 8.9
2014-Aug-20 07:34N 36°42' E 013°19'9 8.8
2014-Aug-20 06:33N 36°45' E 013°09'9 8.9
2014-Aug-20 05:34N 36°48' E 012°59'9 9.1
2014-Aug-20 04:33N 36°52' E 012°48'9 9.1
2014-Aug-20 03:33N 36°55' E 012°37'10 9.0
2014-Aug-20 02:30N 36°58' E 012°26'8 9.0
2014-Aug-20 01:34N 37°01' E 012°16'38 9.0
2014-Aug-19 21:19N 37°15' E 011°31'7 9.1
2014-Aug-19 20:33N 37°17' E 011°23'9 9.1
2014-Aug-19 19:34N 37°21' E 011°13'9 9.1
2014-Aug-19 18:33N 37°24' E 011°02'9 9.2
2014-Aug-19 17:34N 37°26' E 010°51'9 9.5
2014-Aug-19 16:33N 37°28' E 010°39'10 9.6
2014-Aug-19 15:34N 37°30' E 010°27'10 9.7
2014-Aug-19 14:30N 37°33' E 010°15'114 9.6
2014-Aug-19 02:34N 37°19' E 007°52'10 8.7
2014-Aug-19 01:27N 37°19' E 007°40'9 9.4
2014-Aug-19 00:30N 37°19' E 007°28'9 9.1
2014-Aug-18 23:29N 37°19' E 007°17'10 9.0
2014-Aug-18 22:24N 37°19' E 007°04'8 8.9
2014-Aug-18 21:30N 37°19' E 006°54'18 8.9
2014-Aug-18 19:27N 37°18' E 006°31'17 8.5
2014-Aug-18 17:28N 37°17' E 006°10'16 8.2
2014-Aug-18 15:31N 37°16' E 005°50'113 8.4
2014-Aug-18 02:07N 37°06' E 003°29'5 8.0
2014-Aug-18 01:32N 37°06' E 003°23'  

Dump ship's entire track history